Time;durP1;ratioP1;P1;durP2;ratioP2;P2;SDS_P1;SDS_P2;PMS_P1;PMS_P2;Temp;Humidity;BMP_temperature;BMP_pressure;BME280_temperature;BME280_humidity;BME280_pressure;Samples;Min_cycle;Max_cycle;Signal;HPM_P1;HPM_P2
2021/12/20 00:00:42;;;;;;;;;;;17.40;46.70;;;;;;5105286;27;43005;-73
2021/12/20 00:03:08;;;;;;;;;;;17.40;46.80;;;;;;5106144;27;42864;-76
2021/12/20 00:05:33;;;;;;;;;;;17.40;46.80;;;;;;5105129;27;43607;-74
2021/12/20 00:07:59;;;;;;;;;;;17.40;46.80;;;;;;5105397;27;42882;-76
2021/12/20 00:10:25;;;;;;;;;;;17.40;46.80;;;;;;5105265;27;43778;-74
2021/12/20 00:12:50;;;;;;;;;;;17.40;46.80;;;;;;5105222;27;43189;-74
2021/12/20 00:15:17;;;;;;;;;;;17.40;46.90;;;;;;5105050;27;42869;-74
2021/12/20 00:17:42;;;;;;;;;;;17.40;46.80;;;;;;5103662;27;43016;-74
2021/12/20 00:20:08;;;;;;;;;;;17.40;46.80;;;;;;5104925;27;42960;-74
2021/12/20 00:22:34;;;;;;;;;;;17.40;46.70;;;;;;5105980;27;42961;-75
2021/12/20 00:24:59;;;;;;;;;;;17.40;46.80;;;;;;5105706;27;44152;-76
2021/12/20 00:27:25;;;;;;;;;;;17.40;46.80;;;;;;5105841;27;42755;-74
2021/12/20 00:29:50;;;;;;;;;;;17.40;46.90;;;;;;5105513;27;42956;-74
2021/12/20 00:32:17;;;;;;;;;;;17.30;46.80;;;;;;5105665;27;42905;-75
2021/12/20 00:34:43;;;;;;;;;;;17.30;46.80;;;;;;5104714;27;42982;-75
2021/12/20 00:40:20;;;;;;;;;;;17.40;46.90;;;;;;5105684;27;42943;-74
2021/12/20 00:42:39;;;;;;;;;;;17.40;46.70;;;;;;5105242;27;42814;-74
2021/12/20 00:45:05;;;;;;;;;;;17.40;46.80;;;;;;5104404;27;43630;-73
2021/12/20 00:47:31;;;;;;;;;;;17.40;46.80;;;;;;5104956;27;43074;-74
2021/12/20 00:49:56;;;;;;;;;;;17.40;46.90;;;;;;5108846;27;43065;-75
2021/12/20 00:52:22;;;;;;;;;;;17.40;46.90;;;;;;5109092;27;43059;-74
2021/12/20 00:54:47;;;;;;;;;;;17.40;46.90;;;;;;5108890;27;42825;-74
2021/12/20 00:57:13;;;;;;;;;;;17.30;46.90;;;;;;5108455;27;43029;-73
2021/12/20 00:59:38;;;;;;;;;;;17.30;46.80;;;;;;5108920;27;43608;-75
2021/12/20 01:02:04;;;;;;;;;;;17.30;46.80;;;;;;5108079;27;42730;-76
2021/12/20 01:04:29;;;;;;;;;;;17.30;46.80;;;;;;5108482;27;42914;-73
2021/12/20 01:06:55;;;;;;;;;;;17.30;46.90;;;;;;5108146;27;42865;-73
2021/12/20 01:09:21;;;;;;;;;;;17.30;46.90;;;;;;5108356;27;43514;-75
2021/12/20 01:11:51;;;;;;;;;;;17.30;46.90;;;;;;5108441;27;42872;-75
2021/12/20 01:14:24;;;;;;;;;;;17.30;46.90;;;;;;5107635;27;42783;-76
2021/12/20 01:16:50;;;;;;;;;;;17.30;46.90;;;;;;5107902;27;42975;-73
2021/12/20 01:19:16;;;;;;;;;;;17.30;46.90;;;;;;5108058;27;43022;-75
2021/12/20 01:21:42;;;;;;;;;;;17.50;47.00;;;;;;5108188;27;42899;-75
2021/12/20 01:24:07;;;;;;;;;;;17.30;47.00;;;;;;5110468;27;42949;-73
2021/12/20 01:26:34;;;;;;;;;;;17.30;47.20;;;;;;5125051;27;42931;-73
2021/12/20 01:28:59;;;;;;;;;;;17.30;47.00;;;;;;5128589;27;43087;-76
2021/12/20 01:31:25;;;;;;;;;;;17.30;47.00;;;;;;5129262;27;42814;-75
2021/12/20 01:33:50;;;;;;;;;;;17.30;47.00;;;;;;5128732;27;42905;-73
2021/12/20 01:36:16;;;;;;;;;;;17.30;47.00;;;;;;5129100;27;42905;-74
2021/12/20 01:38:41;;;;;;;;;;;17.30;47.00;;;;;;5128622;27;43463;-74
2021/12/20 01:41:08;;;;;;;;;;;17.20;47.00;;;;;;5128220;27;42881;-73
2021/12/20 01:43:34;;;;;;;;;;;17.30;47.00;;;;;;5128632;27;43377;-74
2021/12/20 01:46:00;;;;;;;;;;;17.20;47.00;;;;;;5127994;27;43039;-73
2021/12/20 01:48:26;;;;;;;;;;;17.20;47.00;;;;;;5128726;27;43453;-75
2021/12/20 01:53:25;;;;;;;;;;;17.20;47.00;;;;;;5126984;27;43297;-75
2021/12/20 01:55:52;;;;;;;;;;;17.20;47.10;;;;;;5127926;27;42795;-74
2021/12/20 01:58:18;;;;;;;;;;;17.20;47.10;;;;;;5128149;27;44135;-76
2021/12/20 02:01:01;;;;;;;;;;;17.20;47.20;;;;;;5128435;27;43214;-73
2021/12/20 02:03:27;;;;;;;;;;;17.20;47.10;;;;;;5127525;27;43384;-74
2021/12/20 02:05:56;;;;;;;;;;;17.20;47.10;;;;;;5109837;27;42978;-74
2021/12/20 02:08:24;;;;;;;;;;;17.20;47.10;;;;;;5107608;27;43084;-74
2021/12/20 02:10:53;;;;;;;;;;;17.20;47.10;;;;;;5107637;27;42988;-74
2021/12/20 02:13:19;;;;;;;;;;;17.20;47.00;;;;;;5121152;27;42914;-75
2021/12/20 02:15:45;;;;;;;;;;;17.20;47.10;;;;;;5107028;27;42949;-73
2021/12/20 02:18:10;;;;;;;;;;;17.20;47.00;;;;;;5107203;27;42960;-74
2021/12/20 02:20:37;;;;;;;;;;;17.20;47.10;;;;;;5107518;27;42960;-75
2021/12/20 02:23:04;;;;;;;;;;;17.30;47.10;;;;;;5107530;27;42977;-75
2021/12/20 02:25:30;;;;;;;;;;;17.20;46.90;;;;;;5107640;27;43064;-74
2021/12/20 02:27:56;;;;;;;;;;;17.20;47.00;;;;;;5107100;27;43351;-73
2021/12/20 02:38:26;;;;;;;;;;;17.20;46.90;;;;;;5107451;27;43110;-75
2021/12/20 02:41:04;;;;;;;;;;;17.20;46.80;;;;;;5107358;27;42813;-73
2021/12/20 02:43:34;;;;;;;;;;;17.20;46.80;;;;;;5106846;27;43590;-73
2021/12/20 02:46:03;;;;;;;;;;;17.20;46.90;;;;;;5106756;27;43023;-75
2021/12/20 02:48:28;;;;;;;;;;;17.20;46.80;;;;;;5104475;27;43734;-73
2021/12/20 02:50:55;;;;;;;;;;;17.20;46.80;;;;;;5106427;27;42963;-74
2021/12/20 02:53:20;;;;;;;;;;;17.20;47.00;;;;;;5105731;27;43881;-73
2021/12/20 02:55:46;;;;;;;;;;;17.20;46.90;;;;;;5106384;27;42981;-73
2021/12/20 02:58:11;;;;;;;;;;;17.20;46.80;;;;;;5111093;27;42971;-74
2021/12/20 03:00:37;;;;;;;;;;;17.20;46.80;;;;;;5106801;27;43059;-74
2021/12/20 03:03:03;;;;;;;;;;;17.20;46.80;;;;;;5106892;27;42973;-74
2021/12/20 03:05:28;;;;;;;;;;;17.20;47.00;;;;;;5106844;27;43030;-74
2021/12/20 03:07:54;;;;;;;;;;;17.20;46.80;;;;;;5101501;27;44887;-74
2021/12/20 03:10:21;;;;;;;;;;;17.20;46.80;;;;;;5105213;27;43106;-74
2021/12/20 03:12:49;;;;;;;;;;;17.20;47.40;;;;;;5106271;27;43815;-74
2021/12/20 03:15:19;;;;;;;;;;;17.10;46.80;;;;;;5106935;27;42685;-74
2021/12/20 03:17:45;;;;;;;;;;;17.20;46.80;;;;;;5106315;27;42935;-73
2021/12/20 03:20:14;;;;;;;;;;;17.20;46.80;;;;;;5106127;27;42924;-75
2021/12/20 03:22:40;;;;;;;;;;;17.20;46.80;;;;;;5105661;27;43636;-74
2021/12/20 03:25:06;;;;;;;;;;;17.20;46.90;;;;;;5105473;27;42946;-75
2021/12/20 03:27:31;;;;;;;;;;;17.10;46.80;;;;;;5105658;27;42999;-74
2021/12/20 03:29:57;;;;;;;;;;;17.20;46.80;;;;;;5105757;27;42932;-74
2021/12/20 03:32:22;;;;;;;;;;;17.10;46.80;;;;;;5106166;27;43282;-74
2021/12/20 03:34:48;;;;;;;;;;;17.10;46.80;;;;;;5106493;27;42877;-74
2021/12/20 03:37:13;;;;;;;;;;;17.20;46.80;;;;;;5106552;27;42991;-75
2021/12/20 03:39:39;;;;;;;;;;;17.20;46.80;;;;;;5106013;27;42896;-77
2021/12/20 03:42:05;;;;;;;;;;;17.20;46.80;;;;;;5106247;27;42980;-74
2021/12/20 03:44:32;;;;;;;;;;;17.10;46.70;;;;;;5106500;27;42948;-74
2021/12/20 03:47:01;;;;;;;;;;;17.20;46.80;;;;;;5106193;27;43601;-74
2021/12/20 03:49:26;;;;;;;;;;;17.10;46.70;;;;;;5106243;27;42857;-74
2021/12/20 03:51:52;;;;;;;;;;;17.10;46.70;;;;;;5103812;27;43841;-75
2021/12/20 03:54:17;;;;;;;;;;;17.10;46.70;;;;;;5105488;27;43044;-75
2021/12/20 03:56:43;;;;;;;;;;;17.10;46.70;;;;;;5105293;27;43608;-74
2021/12/20 03:59:08;;;;;;;;;;;17.10;46.70;;;;;;5105710;27;43164;-74
2021/12/20 04:01:34;;;;;;;;;;;17.20;46.80;;;;;;5105424;27;43414;-75
2021/12/20 04:04:00;;;;;;;;;;;17.10;46.70;;;;;;5104746;27;42926;-74
2021/12/20 04:06:26;;;;;;;;;;;17.20;46.80;;;;;;5104070;27;43630;-74
2021/12/20 04:08:52;;;;;;;;;;;17.10;46.70;;;;;;5105386;27;43017;-74
2021/12/20 04:11:17;;;;;;;;;;;17.10;46.70;;;;;;5105255;27;42999;-73
2021/12/20 04:13:43;;;;;;;;;;;17.10;46.70;;;;;;5110283;27;42981;-76
2021/12/20 04:16:08;;;;;;;;;;;17.10;46.80;;;;;;5126020;27;43005;-75
2021/12/20 04:18:34;;;;;;;;;;;17.10;46.80;;;;;;5125577;27;42717;-74
2021/12/20 04:21:00;;;;;;;;;;;17.10;46.70;;;;;;5126028;27;42986;-74
2021/12/20 04:23:25;;;;;;;;;;;17.10;46.70;;;;;;5126864;27;42915;-76
2021/12/20 04:25:51;;;;;;;;;;;17.10;46.70;;;;;;5126305;27;43144;-77
2021/12/20 04:28:16;;;;;;;;;;;17.10;46.80;;;;;;5130183;27;42991;-74
2021/12/20 04:30:42;;;;;;;;;;;17.10;46.70;;;;;;5122738;27;43263;-74
2021/12/20 04:33:07;;;;;;;;;;;17.10;46.70;;;;;;5109403;27;42965;-75
2021/12/20 04:35:33;;;;;;;;;;;17.10;46.70;;;;;;5109034;27;42987;-74
2021/12/20 04:38:00;;;;;;;;;;;17.10;46.80;;;;;;5108947;27;42943;-74
2021/12/20 04:40:26;;;;;;;;;;;17.10;46.70;;;;;;5108869;27;43164;-74
2021/12/20 04:42:56;;;;;;;;;;;17.00;46.70;;;;;;5109025;27;42848;-73
2021/12/20 04:45:22;;;;;;;;;;;17.10;46.70;;;;;;5107610;27;42849;-76
2021/12/20 04:47:48;;;;;;;;;;;17.10;46.70;;;;;;5129323;27;42927;-73
2021/12/20 04:50:14;;;;;;;;;;;17.10;46.70;;;;;;5128929;27;43477;-76
2021/12/20 04:52:41;;;;;;;;;;;17.10;46.70;;;;;;5126706;27;43093;-76
2021/12/20 04:55:08;;;;;;;;;;;17.10;46.70;;;;;;5109193;27;42987;-76
2021/12/20 04:57:33;;;;;;;;;;;17.10;46.70;;;;;;5113601;27;43189;-74
2021/12/20 04:59:59;;;;;;;;;;;17.10;46.70;;;;;;5105581;27;42985;-74
2021/12/20 05:02:25;;;;;;;;;;;17.10;46.70;;;;;;5117729;27;42951;-80
2021/12/20 05:04:50;;;;;;;;;;;17.10;46.70;;;;;;5113941;27;43609;-81
2021/12/20 05:07:16;;;;;;;;;;;17.10;46.70;;;;;;5113033;27;43117;-73
2021/12/20 05:09:42;;;;;;;;;;;17.10;46.80;;;;;;5114023;27;42956;-75
2021/12/20 05:12:12;;;;;;;;;;;17.10;46.80;;;;;;5116639;27;43061;-73
2021/12/20 05:14:41;;;;;;;;;;;17.20;46.80;;;;;;5116256;27;43068;-82
2021/12/20 05:17:07;;;;;;;;;;;17.10;46.80;;;;;;5117083;27;42915;-73
2021/12/20 05:19:33;;;;;;;;;;;19.50;48.00;;;;;;5114946;27;43722;-83
2021/12/20 05:21:59;;;;;;;;;;;17.10;46.80;;;;;;5116672;27;42942;-85
2021/12/20 05:24:24;;;;;;;;;;;17.10;46.90;;;;;;5121624;27;43073;-74
2021/12/20 05:26:51;;;;;;;;;;;17.10;47.00;;;;;;5127303;27;43062;-81
2021/12/20 05:29:16;;;;;;;;;;;17.10;47.00;;;;;;5128139;27;43728;-85
2021/12/20 05:31:42;;;;;;;;;;;17.10;47.00;;;;;;5112752;27;43131;-74
2021/12/20 05:34:08;;;;;;;;;;;17.00;47.00;;;;;;5114164;27;43493;-73
2021/12/20 05:36:33;;;;;;;;;;;16.50;43.60;;;;;;5116612;27;42975;-77
2021/12/20 05:38:59;;;;;;;;;;;16.00;42.30;;;;;;5115465;27;43068;-77
2021/12/20 05:41:24;;;;;;;;;;;15.50;40.10;;;;;;5118471;27;43072;-74
2021/12/20 05:43:50;;;;;;;;;;;15.00;40.70;;;;;;5115532;27;42908;-78
2021/12/20 05:46:15;;;;;;;;;;;15.10;41.70;;;;;;5114567;27;43146;-74
2021/12/20 05:48:41;;;;;;;;;;;15.30;41.50;;;;;;5114573;27;43541;-73
2021/12/20 05:51:07;;;;;;;;;;;15.50;41.90;;;;;;5116493;27;42986;-77
2021/12/20 05:53:32;;;;;;;;;;;16.30;43.10;;;;;;5116160;27;43444;-72
2021/12/20 05:55:58;;;;;;;;;;;15.80;42.40;;;;;;5115411;27;43048;-73
2021/12/20 05:58:23;;;;;;;;;;;15.90;42.10;;;;;;5116864;27;43682;-72
2021/12/20 06:00:49;;;;;;;;;;;15.90;41.70;;;;;;5117908;27;42981;-77
2021/12/20 06:03:14;;;;;;;;;;;16.00;41.50;;;;;;5120329;27;42915;-78
2021/12/20 06:05:42;;;;;;;;;;;16.00;41.30;;;;;;5126721;27;43045;-80
2021/12/20 06:08:08;;;;;;;;;;;15.90;40.60;;;;;;5126638;27;42889;-75
2021/12/20 06:10:35;;;;;;;;;;;16.00;41.50;;;;;;5126739;27;42861;-79
2021/12/20 06:13:01;;;;;;;;;;;16.10;42.10;;;;;;5126951;27;43928;-78
2021/12/20 06:15:27;;;;;;;;;;;16.20;42.40;;;;;;5126121;27;43121;-84
2021/12/20 06:17:52;;;;;;;;;;;16.40;42.50;;;;;;5127778;27;42920;-75
2021/12/20 06:20:18;;;;;;;;;;;16.50;42.70;;;;;;5127013;27;42849;-74
2021/12/20 06:22:43;;;;;;;;;;;16.50;42.60;;;;;;5109411;27;43700;-81
2021/12/20 06:25:09;;;;;;;;;;;16.50;42.70;;;;;;5106951;27;42980;-83
2021/12/20 06:27:35;;;;;;;;;;;16.60;42.80;;;;;;5106327;27;43426;-83
2021/12/20 06:30:01;;;;;;;;;;;16.60;42.80;;;;;;5124683;27;42957;-74
2021/12/20 06:32:26;;;;;;;;;;;16.60;42.90;;;;;;5125649;27;42819;-73
2021/12/20 06:34:52;;;;;;;;;;;16.70;43.00;;;;;;5127029;27;42963;-74
2021/12/20 06:37:17;;;;;;;;;;;16.70;43.00;;;;;;5114621;27;42910;-74
2021/12/20 06:39:43;;;;;;;;;;;16.70;43.10;;;;;;5106719;27;42920;-74
2021/12/20 06:42:08;;;;;;;;;;;16.70;43.20;;;;;;5106359;27;42927;-73
2021/12/20 06:44:34;;;;;;;;;;;16.70;43.20;;;;;;5108070;27;42928;-73
2021/12/20 06:47:00;;;;;;;;;;;16.70;43.20;;;;;;5113347;27;44391;-82
2021/12/20 06:49:26;;;;;;;;;;;16.70;43.30;;;;;;5125721;27;42973;-74
2021/12/20 06:51:53;;;;;;;;;;;16.70;43.60;;;;;;5125365;27;44091;-73
2021/12/20 06:54:19;;;;;;;;;;;16.70;43.80;;;;;;5111865;27;43122;-81
2021/12/20 06:56:44;;;;;;;;;;;16.80;44.00;;;;;;5106667;27;42877;-73
2021/12/20 06:59:10;;;;;;;;;;;16.70;44.00;;;;;;5104786;27;43053;-78
2021/12/20 07:01:36;;;;;;;;;;;16.80;44.10;;;;;;5105359;27;43446;-74
2021/12/20 07:04:02;;;;;;;;;;;16.80;44.20;;;;;;5106609;27;42870;-76
2021/12/20 07:06:30;;;;;;;;;;;16.80;44.30;;;;;;5105953;27;43404;-73
2021/12/20 07:08:56;;;;;;;;;;;16.80;44.30;;;;;;5107223;27;43441;-78
2021/12/20 07:11:22;;;;;;;;;;;16.80;44.40;;;;;;5107032;27;42981;-74
2021/12/20 07:13:48;;;;;;;;;;;16.80;44.40;;;;;;5106346;27;42813;-73
2021/12/20 07:16:14;;;;;;;;;;;16.80;44.50;;;;;;5106033;27;42912;-73
2021/12/20 07:18:40;;;;;;;;;;;16.80;44.50;;;;;;5106601;27;42809;-74
2021/12/20 07:21:05;;;;;;;;;;;16.80;44.50;;;;;;5106350;27;43597;-75
2021/12/20 07:23:31;;;;;;;;;;;16.80;44.60;;;;;;5106709;27;42899;-73
2021/12/20 07:25:56;;;;;;;;;;;16.80;44.60;;;;;;5106674;27;42858;-73
2021/12/20 07:28:22;;;;;;;;;;;16.80;44.70;;;;;;5106609;27;42999;-73
2021/12/20 07:30:48;;;;;;;;;;;16.80;44.70;;;;;;5105402;27;43841;-73
2021/12/20 07:33:15;;;;;;;;;;;16.70;44.60;;;;;;5106264;27;42889;-73
2021/12/20 07:35:41;;;;;;;;;;;16.80;44.70;;;;;;5106177;27;43367;-73
2021/12/20 07:38:11;;;;;;;;;;;16.70;44.60;;;;;;5106355;27;42906;-73
2021/12/20 07:40:36;;;;;;;;;;;16.80;44.70;;;;;;5106164;27;43620;-74
2021/12/20 07:43:02;;;;;;;;;;;16.80;44.80;;;;;;5106161;27;43490;-73
2021/12/20 07:45:28;;;;;;;;;;;16.70;44.70;;;;;;5105993;27;42925;-76
2021/12/20 07:47:54;;;;;;;;;;;16.80;44.80;;;;;;5106357;27;42862;-73
2021/12/20 07:50:20;;;;;;;;;;;16.70;44.80;;;;;;5106738;27;43481;-74
2021/12/20 07:52:46;;;;;;;;;;;16.70;44.80;;;;;;5106174;27;43237;-77
2021/12/20 07:55:12;;;;;;;;;;;16.70;44.80;;;;;;5104420;27;44254;-77
2021/12/20 07:57:37;;;;;;;;;;;16.80;44.80;;;;;;5105792;27;43078;-73
2021/12/20 08:00:07;;;;;;;;;;;16.70;44.80;;;;;;5106305;27;43681;-84
2021/12/20 08:02:32;;;;;;;;;;;16.70;44.80;;;;;;5106211;27;42809;-74
2021/12/20 08:04:58;;;;;;;;;;;16.70;44.90;;;;;;5104877;27;42932;-79
2021/12/20 08:07:26;;;;;;;;;;;16.70;44.90;;;;;;5104558;27;59655;-82
2021/12/20 08:09:51;;;;;;;;;;;16.70;44.90;;;;;;5105793;27;42988;-73
2021/12/20 08:12:17;;;;;;;;;;;16.70;44.90;;;;;;5106298;27;42893;-74
2021/12/20 08:14:43;;;;;;;;;;;16.70;44.90;;;;;;5105891;27;42920;-82
2021/12/20 08:17:08;;;;;;;;;;;16.70;44.90;;;;;;5105790;27;42943;-74
2021/12/20 08:19:34;;;;;;;;;;;16.70;44.90;;;;;;5105919;27;43603;-75
2021/12/20 08:21:59;;;;;;;;;;;16.70;44.90;;;;;;5106006;27;42859;-77
2021/12/20 08:24:25;;;;;;;;;;;16.70;44.90;;;;;;5105323;27;42885;-74
2021/12/20 08:26:51;;;;;;;;;;;16.70;44.90;;;;;;5105332;27;43101;-82
2021/12/20 08:29:16;;;;;;;;;;;16.70;45.00;;;;;;5105476;27;44002;-74
2021/12/20 08:31:42;;;;;;;;;;;16.70;44.90;;;;;;5105897;27;43123;-76
2021/12/20 08:34:07;;;;;;;;;;;16.70;45.00;;;;;;5106123;27;43468;-76
2021/12/20 08:36:33;;;;;;;;;;;16.70;44.90;;;;;;5104574;27;43044;-75
2021/12/20 08:38:59;;;;;;;;;;;16.70;44.90;;;;;;5105217;27;43012;-79
2021/12/20 08:41:24;;;;;;;;;;;16.70;45.00;;;;;;5105520;27;42921;-74
2021/12/20 08:43:50;;;;;;;;;;;16.70;44.90;;;;;;5105405;27;43701;-72
2021/12/20 08:46:16;;;;;;;;;;;16.70;44.90;;;;;;5105623;27;42917;-73
2021/12/20 08:48:42;;;;;;;;;;;16.70;45.00;;;;;;5105228;27;43519;-73
2021/12/20 08:51:08;;;;;;;;;;;16.70;44.90;;;;;;5105067;27;42952;-73
2021/12/20 08:53:34;;;;;;;;;;;16.70;44.90;;;;;;5104731;27;42985;-73
2021/12/20 08:55:59;;;;;;;;;;;16.70;44.90;;;;;;5105201;27;42978;-77
2021/12/20 08:58:25;;;;;;;;;;;16.70;45.00;;;;;;5105361;27;42910;-73
2021/12/20 09:00:51;;;;;;;;;;;16.70;44.90;;;;;;5105460;27;42786;-77
2021/12/20 09:03:17;;;;;;;;;;;16.70;44.90;;;;;;5104823;27;43379;-81
2021/12/20 09:05:42;;;;;;;;;;;16.70;45.00;;;;;;5104662;27;42973;-73
2021/12/20 09:08:10;;;;;;;;;;;16.70;45.00;;;;;;5104623;27;43995;-72
2021/12/20 09:10:36;;;;;;;;;;;16.70;45.00;;;;;;5108505;27;42969;-80
2021/12/20 09:13:02;;;;;;;;;;;16.70;45.00;;;;;;5108777;27;43434;-73
2021/12/20 09:15:28;;;;;;;;;;;16.60;44.90;;;;;;5108485;27;42894;-73
2021/12/20 09:17:53;;;;;;;;;;;16.70;45.00;;;;;;5108370;27;42853;-72
2021/12/20 09:20:21;;;;;;;;;;;16.70;45.00;;;;;;5108089;27;42934;-72
2021/12/20 09:22:51;;;;;;;;;;;16.70;45.00;;;;;;5107743;27;43572;-72
2021/12/20 09:25:25;;;;;;;;;;;16.70;45.00;;;;;;5107748;27;42980;-72
2021/12/20 09:27:51;;;;;;;;;;;16.70;45.00;;;;;;5108120;27;43411;-75
2021/12/20 09:30:17;;;;;;;;;;;16.60;45.00;;;;;;5108127;27;42942;-73
2021/12/20 09:32:43;;;;;;;;;;;16.70;45.00;;;;;;5107002;27;43670;-73
2021/12/20 09:35:09;;;;;;;;;;;16.60;45.00;;;;;;5108534;27;42895;-73
2021/12/20 09:37:35;;;;;;;;;;;16.60;45.00;;;;;;5108270;27;43336;-73
2021/12/20 09:40:00;;;;;;;;;;;16.60;45.00;;;;;;5108156;27;42756;-73
2021/12/20 09:42:26;;;;;;;;;;;16.60;45.00;;;;;;5107967;27;43662;-78
2021/12/20 09:44:53;;;;;;;;;;;16.60;45.00;;;;;;5106101;27;42962;-73
2021/12/20 09:47:18;;;;;;;;;;;16.60;45.00;;;;;;5107514;27;43098;-77
2021/12/20 09:49:44;;;;;;;;;;;16.60;45.00;;;;;;5108121;27;42794;-81
2021/12/20 09:52:10;;;;;;;;;;;16.60;45.00;;;;;;5108165;27;42839;-73
2021/12/20 09:54:37;;;;;;;;;;;16.60;45.00;;;;;;5107627;27;43003;-72
2021/12/20 09:57:06;;;;;;;;;;;16.60;44.90;;;;;;5107403;27;43452;-72
2021/12/20 09:59:35;;;;;;;;;;;16.60;44.90;;;;;;5107878;27;43007;-75
2021/12/20 10:02:01;;;;;;;;;;;16.60;44.90;;;;;;5107778;27;42829;-73
2021/12/20 10:04:26;;;;;;;;;;;16.60;45.00;;;;;;5107693;27;42871;-72
2021/12/20 10:06:54;;;;;;;;;;;16.60;45.00;;;;;;5107405;27;42883;-74
2021/12/20 10:09:25;;;;;;;;;;;16.60;45.00;;;;;;5106505;27;43352;-74
2021/12/20 10:12:08;;;;;;;;;;;16.60;45.00;;;;;;5107526;27;42968;-82
2021/12/20 10:14:49;;;;;;;;;;;16.60;45.00;;;;;;5107723;27;43069;-83
2021/12/20 10:17:15;;;;;;;;;;;16.60;45.00;;;;;;5107627;27;43012;-73
2021/12/20 10:19:40;;;;;;;;;;;16.60;45.00;;;;;;5107455;27;43062;-72
2021/12/20 10:22:24;;;;;;;;;;;16.60;45.00;;;;;;5107701;27;43523;-77
2021/12/20 10:24:49;;;;;;;;;;;16.60;45.00;;;;;;5107416;27;42978;-76
2021/12/20 10:27:28;;;;;;;;;;;16.60;45.00;;;;;;5107346;27;43023;-72
2021/12/20 10:29:54;;;;;;;;;;;16.60;44.90;;;;;;5107781;27;42773;-82
2021/12/20 10:32:38;;;;;;;;;;;16.60;45.00;;;;;;5107262;27;42803;-73
2021/12/20 10:35:24;;;;;;;;;;;16.60;45.00;;;;;;5107290;27;42968;-74
2021/12/20 10:37:49;;;;;;;;;;;16.60;45.00;;;;;;5107098;27;42858;-72
2021/12/20 10:40:15;;;;;;;;;;;16.60;45.00;;;;;;5106974;27;42835;-73
2021/12/20 10:42:40;;;;;;;;;;;16.60;45.10;;;;;;5105397;27;44816;-73
2021/12/20 10:45:07;;;;;;;;;;;16.60;45.00;;;;;;5106857;27;42986;-73
2021/12/20 10:47:33;;;;;;;;;;;16.60;45.00;;;;;;5107373;27;43577;-79
2021/12/20 10:49:58;;;;;;;;;;;16.60;45.00;;;;;;5107284;27;43003;-79
2021/12/20 10:52:28;;;;;;;;;;;16.60;45.10;;;;;;5105679;27;44478;-74
2021/12/20 10:54:53;;;;;;;;;;;16.60;45.00;;;;;;5105303;27;43016;-78
2021/12/20 10:57:26;;;;;;;;;;;16.60;45.10;;;;;;5106549;27;43490;-75
2021/12/20 11:00:12;;;;;;;;;;;16.60;45.00;;;;;;5107127;27;43017;-72
2021/12/20 11:03:35;;;;;;;;;;;16.60;45.10;;;;;;5106987;27;43826;-74
2021/12/20 11:06:13;;;;;;;;;;;16.60;45.10;;;;;;5102366;27;43103;-74
2021/12/20 11:11:23;;;;;;;;;;;16.60;45.00;;;;;;5107125;27;43117;-75
2021/12/20 11:13:49;;;;;;;;;;;16.60;45.00;;;;;;5106426;27;42995;-76
2021/12/20 11:16:27;;;;;;;;;;;16.60;45.10;;;;;;5106409;27;42932;-77
2021/12/20 11:19:13;;;;;;;;;;;16.60;45.00;;;;;;5106482;27;42960;-73
2021/12/20 11:21:50;;;;;;;;;;;16.60;45.00;;;;;;5106873;27;42819;-73
2021/12/20 11:24:17;;;;;;;;;;;16.60;45.00;;;;;;5106557;27;43031;-73
2021/12/20 11:26:43;;;;;;;;;;;16.60;45.10;;;;;;5106640;27;42946;-73
2021/12/20 11:29:09;;;;;;;;;;;16.60;45.00;;;;;;5106122;27;43590;-74
2021/12/20 11:31:35;;;;;;;;;;;16.60;45.00;;;;;;5105417;27;42980;-73
2021/12/20 11:34:01;;;;;;;;;;;16.60;45.10;;;;;;5106656;27;43666;-75
2021/12/20 11:36:26;;;;;;;;;;;16.60;45.10;;;;;;5106480;27;42791;-84
2021/12/20 11:38:52;;;;;;;;;;;16.60;45.10;;;;;;5105978;27;43506;-74
2021/12/20 11:41:18;;;;;;;;;;;16.60;45.10;;;;;;5106355;27;42987;-72
2021/12/20 11:43:47;;;;;;;;;;;16.60;45.10;;;;;;5105733;27;43629;-76
2021/12/20 11:46:13;;;;;;;;;;;16.60;45.00;;;;;;5106183;27;42943;-73
2021/12/20 11:48:39;;;;;;;;;;;16.60;45.10;;;;;;5105921;27;43550;-73
2021/12/20 11:51:05;;;;;;;;;;;16.60;45.10;;;;;;5106655;27;42960;-73
2021/12/20 11:53:34;;;;;;;;;;;16.60;45.10;;;;;;5106115;27;43532;-73
2021/12/20 11:55:59;;;;;;;;;;;16.60;45.10;;;;;;5106445;27;43031;-73
2021/12/20 11:58:27;;;;;;;;;;;16.60;45.10;;;;;;5106143;27;43071;-74
2021/12/20 12:00:53;;;;;;;;;;;16.60;45.10;;;;;;5104389;27;42897;-74
2021/12/20 12:03:24;;;;;;;;;;;16.60;45.00;;;;;;5105648;27;42980;-74
2021/12/20 12:06:05;;;;;;;;;;;16.60;45.10;;;;;;5105775;27;42971;-74
2021/12/20 12:08:35;;;;;;;;;;;16.60;45.10;;;;;;5105349;27;43745;-75
2021/12/20 12:11:04;;;;;;;;;;;16.70;45.10;;;;;;5107704;27;43025;-78
2021/12/20 12:13:35;;;;;;;;;;;16.60;44.60;;;;;;5104789;27;42991;-82
2021/12/20 12:16:05;;;;;;;;;;;16.50;43.60;;;;;;5105776;27;42922;-85
2021/12/20 12:18:43;;;;;;;;;;;16.20;42.30;;;;;;5126251;27;42758;-85
2021/12/20 12:21:29;;;;;;;;;;;16.10;41.30;;;;;;5124484;27;42980;-83
2021/12/20 12:23:54;;;;;;;;;;;15.90;40.70;;;;;;5105453;27;43794;-74
2021/12/20 12:26:30;;;;;;;;;;;15.70;40.00;;;;;;5105569;27;42879;-75
2021/12/20 12:28:56;;;;;;;;;;;15.50;40.00;;;;;;5113541;27;43505;-74
2021/12/20 12:31:22;;;;;;;;;;;15.40;39.70;;;;;;5123603;27;43687;-74
2021/12/20 12:34:03;;;;;;;;;;;15.40;39.40;;;;;;5124825;27;42980;-74
2021/12/20 12:36:31;;;;;;;;;;;15.30;39.50;;;;;;5126312;27;42893;-73
2021/12/20 12:39:05;;;;;;;;;;;15.30;39.10;;;;;;5126068;27;42920;-74
2021/12/20 12:41:32;;;;;;;;;;;15.30;38.90;;;;;;5125788;27;43017;-75
2021/12/20 12:44:00;;;;;;;;;;;15.30;38.60;;;;;;5128998;27;43657;-77
2021/12/20 12:46:41;;;;;;;;;;;15.20;38.70;;;;;;5129939;27;42881;-73
2021/12/20 12:49:19;;;;;;;;;;;15.20;38.50;;;;;;5128795;27;42849;-73
2021/12/20 12:51:44;;;;;;;;;;;15.10;38.30;;;;;;5129597;27;43024;-73
2021/12/20 12:54:30;;;;;;;;;;;15.10;38.50;;;;;;5129284;27;43476;-78
2021/12/20 12:57:15;;;;;;;;;;;15.10;38.00;;;;;;5129436;27;43077;-74
2021/12/20 12:59:47;;;;;;;;;;;15.10;37.80;;;;;;5128814;27;43033;-78
2021/12/20 13:02:20;;;;;;;;;;;15.00;37.30;;;;;;5128696;27;43079;-76
2021/12/20 13:04:46;;;;;;;;;;;15.00;37.80;;;;;;5120134;27;43094;-76
2021/12/20 13:07:16;;;;;;;;;;;15.00;37.80;;;;;;5114073;27;42917;-74
2021/12/20 13:09:46;;;;;;;;;;;15.10;37.60;;;;;;5108274;27;43565;-78
2021/12/20 13:12:16;;;;;;;;;;;15.00;37.60;;;;;;5108016;27;43011;-73
2021/12/20 13:15:03;;;;;;;;;;;15.00;37.70;;;;;;5107633;27;44540;-79
2021/12/20 13:17:34;;;;;;;;;;;15.00;37.70;;;;;;5107887;27;42950;-76
2021/12/20 13:20:07;;;;;;;;;;;15.00;37.50;;;;;;5107106;27;42997;-74
2021/12/20 13:22:33;;;;;;;;;;;15.00;37.80;;;;;;5106933;27;42980;-75
2021/12/20 13:24:58;;;;;;;;;;;15.30;38.40;;;;;;5107262;27;43489;-74
2021/12/20 13:27:31;;;;;;;;;;;15.40;38.80;;;;;;5108223;27;42960;-70
2021/12/20 13:29:57;;;;;;;;;;;15.60;39.20;;;;;;5103077;27;43736;-68
2021/12/20 13:32:22;;;;;;;;;;;15.70;39.70;;;;;;5107565;27;43322;-75
2021/12/20 13:34:48;;;;;;;;;;;15.80;40.20;;;;;;5107802;27;43093;-70
2021/12/20 13:37:13;;;;;;;;;;;15.80;40.70;;;;;;5107209;27;42820;-74
2021/12/20 13:39:39;;;;;;;;;;;16.00;41.10;;;;;;5107405;27;43078;-72
2021/12/20 13:42:06;;;;;;;;;;;16.00;41.30;;;;;;5109569;27;42840;-72
2021/12/20 13:44:32;;;;;;;;;;;16.00;41.60;;;;;;5107270;27;43479;-72
2021/12/20 13:47:01;;;;;;;;;;;16.10;41.90;;;;;;5107230;27;43046;-75
2021/12/20 13:49:27;;;;;;;;;;;16.10;42.00;;;;;;5107435;27;43534;-68
2021/12/20 13:51:56;;;;;;;;;;;16.10;42.20;;;;;;5109615;27;43063;-78
2021/12/20 13:54:23;;;;;;;;;;;16.20;41.80;;;;;;5106178;27;42933;-74
2021/12/20 13:56:55;;;;;;;;;;;16.30;41.70;;;;;;5123296;27;43010;-84
2021/12/20 13:59:22;;;;;;;;;;;16.30;41.90;;;;;;5128252;27;43592;-83
2021/12/20 14:01:47;;;;;;;;;;;16.30;42.00;;;;;;5128389;27;43258;-83
2021/12/20 14:04:24;;;;;;;;;;;16.40;42.10;;;;;;5108167;27;42924;-84
2021/12/20 14:06:50;;;;;;;;;;;16.40;42.10;;;;;;5107192;27;42904;-73
2021/12/20 14:09:35;;;;;;;;;;;16.40;42.10;;;;;;5107173;27;43470;-73
2021/12/20 14:12:06;;;;;;;;;;;16.40;42.10;;;;;;5107261;27;42981;-74
2021/12/20 14:14:32;;;;;;;;;;;16.50;42.20;;;;;;5107423;27;44024;-74
2021/12/20 14:16:59;;;;;;;;;;;16.50;42.30;;;;;;5107531;27;42806;-74
2021/12/20 14:19:43;;;;;;;;;;;16.50;42.30;;;;;;5107651;27;44115;-74
2021/12/20 14:22:08;;;;;;;;;;;16.50;42.30;;;;;;5107176;27;43062;-84
2021/12/20 14:24:37;;;;;;;;;;;16.50;42.40;;;;;;5107144;27;43830;-82
2021/12/20 14:27:03;;;;;;;;;;;16.60;42.40;;;;;;5105919;27;42949;-81
2021/12/20 14:29:32;;;;;;;;;;;16.60;42.40;;;;;;5106983;27;42992;-83
2021/12/20 14:32:00;;;;;;;;;;;16.60;42.50;;;;;;5106689;27;42993;-74
2021/12/20 14:34:34;;;;;;;;;;;16.60;42.50;;;;;;5107275;27;42923;-77